sensor_id;sensor_type;location;lat;lon;timestamp;temperature;humidity
17442;DHT22;8838;50.144;8.176;2023-03-01T00:01:01;-1.70;99.90
17442;DHT22;8838;50.144;8.176;2023-03-01T00:03:28;-1.70;99.90
17442;DHT22;8838;50.144;8.176;2023-03-01T00:05:55;-1.80;99.90
17442;DHT22;8838;50.144;8.176;2023-03-01T00:08:22;-1.80;99.90
17442;DHT22;8838;50.144;8.176;2023-03-01T00:10:49;-1.80;99.90
17442;DHT22;8838;50.144;8.176;2023-03-01T00:13:16;-1.90;99.90
17442;DHT22;8838;50.144;8.176;2023-03-01T00:15:44;-1.90;99.90
17442;DHT22;8838;50.144;8.176;2023-03-01T00:18:11;-1.90;99.90
17442;DHT22;8838;50.144;8.176;2023-03-01T00:20:38;-2.00;99.90
17442;DHT22;8838;50.144;8.176;2023-03-01T00:23:07;-1.90;99.90
17442;DHT22;8838;50.144;8.176;2023-03-01T00:25:41;-1.90;99.90
17442;DHT22;8838;50.144;8.176;2023-03-01T00:28:08;-1.90;99.90
17442;DHT22;8838;50.144;8.176;2023-03-01T00:30:34;-1.90;99.90
17442;DHT22;8838;50.144;8.176;2023-03-01T00:33:03;-2.10;99.90
17442;DHT22;8838;50.144;8.176;2023-03-01T00:35:31;-2.10;99.90
17442;DHT22;8838;50.144;8.176;2023-03-01T00:37:58;-2.10;99.90
17442;DHT22;8838;50.144;8.176;2023-03-01T00:40:26;-2.10;99.90
17442;DHT22;8838;50.144;8.176;2023-03-01T00:42:53;-2.10;99.90
17442;DHT22;8838;50.144;8.176;2023-03-01T00:45:20;-2.00;99.90
17442;DHT22;8838;50.144;8.176;2023-03-01T00:47:48;-2.00;99.90
17442;DHT22;8838;50.144;8.176;2023-03-01T00:50:17;-1.90;99.90
17442;DHT22;8838;50.144;8.176;2023-03-01T00:52:45;-1.90;99.90
17442;DHT22;8838;50.144;8.176;2023-03-01T00:55:12;-1.90;99.90
17442;DHT22;8838;50.144;8.176;2023-03-01T00:57:38;-1.90;99.90
17442;DHT22;8838;50.144;8.176;2023-03-01T01:00:08;-1.90;99.90
17442;DHT22;8838;50.144;8.176;2023-03-01T01:02:37;-1.90;99.90
17442;DHT22;8838;50.144;8.176;2023-03-01T01:05:04;-2.00;99.90
17442;DHT22;8838;50.144;8.176;2023-03-01T01:07:34;-2.10;99.90
17442;DHT22;8838;50.144;8.176;2023-03-01T01:10:02;-2.10;99.90
17442;DHT22;8838;50.144;8.176;2023-03-01T01:12:28;-2.10;99.90
17442;DHT22;8838;50.144;8.176;2023-03-01T01:14:55;-2.20;99.90
17442;DHT22;8838;50.144;8.176;2023-03-01T01:17:22;-2.40;99.90
17442;DHT22;8838;50.144;8.176;2023-03-01T01:19:49;-2.60;99.90
17442;DHT22;8838;50.144;8.176;2023-03-01T01:22:16;-2.60;99.90
17442;DHT22;8838;50.144;8.176;2023-03-01T01:24:44;-2.70;99.90
17442;DHT22;8838;50.144;8.176;2023-03-01T01:27:11;-2.50;99.90
17442;DHT22;8838;50.144;8.176;2023-03-01T01:29:41;-2.50;99.90
17442;DHT22;8838;50.144;8.176;2023-03-01T01:32:09;-2.50;99.90
17442;DHT22;8838;50.144;8.176;2023-03-01T01:34:36;-2.40;99.90
17442;DHT22;8838;50.144;8.176;2023-03-01T01:37:03;-2.40;99.90
17442;DHT22;8838;50.144;8.176;2023-03-01T01:39:33;-2.40;99.90
17442;DHT22;8838;50.144;8.176;2023-03-01T01:42:02;-2.20;99.90
17442;DHT22;8838;50.144;8.176;2023-03-01T01:44:29;-2.20;99.90
17442;DHT22;8838;50.144;8.176;2023-03-01T01:46:58;-2.20;99.90
17442;DHT22;8838;50.144;8.176;2023-03-01T01:49:31;-2.30;99.90
17442;DHT22;8838;50.144;8.176;2023-03-01T01:52:04;-2.30;99.90
17442;DHT22;8838;50.144;8.176;2023-03-01T01:54:38;-2.30;99.90
17442;DHT22;8838;50.144;8.176;2023-03-01T01:57:12;-2.30;99.90
17442;DHT22;8838;50.144;8.176;2023-03-01T01:59:44;-2.30;99.90
17442;DHT22;8838;50.144;8.176;2023-03-01T02:02:12;-2.30;99.90
17442;DHT22;8838;50.144;8.176;2023-03-01T02:04:40;-2.30;99.90
17442;DHT22;8838;50.144;8.176;2023-03-01T02:07:14;-2.40;99.90
17442;DHT22;8838;50.144;8.176;2023-03-01T02:09:42;-2.20;99.90
17442;DHT22;8838;50.144;8.176;2023-03-01T02:12:13;-2.10;99.90
17442;DHT22;8838;50.144;8.176;2023-03-01T02:14:40;-2.10;99.90
17442;DHT22;8838;50.144;8.176;2023-03-01T02:17:07;-2.30;99.90
17442;DHT22;8838;50.144;8.176;2023-03-01T02:19:47;-2.40;99.90
17442;DHT22;8838;50.144;8.176;2023-03-01T02:22:22;-2.40;99.90
17442;DHT22;8838;50.144;8.176;2023-03-01T02:24:58;-2.50;99.90
17442;DHT22;8838;50.144;8.176;2023-03-01T02:27:36;-2.50;99.90
17442;DHT22;8838;50.144;8.176;2023-03-01T02:30:07;-2.50;99.90
17442;DHT22;8838;50.144;8.176;2023-03-01T02:32:38;-2.40;99.90
17442;DHT22;8838;50.144;8.176;2023-03-01T02:35:09;-2.30;99.90
17442;DHT22;8838;50.144;8.176;2023-03-01T02:37:37;-2.30;99.90
17442;DHT22;8838;50.144;8.176;2023-03-01T02:40:07;-2.30;99.90
17442;DHT22;8838;50.144;8.176;2023-03-01T02:42:43;-2.30;99.90
17442;DHT22;8838;50.144;8.176;2023-03-01T02:45:14;-2.20;99.90
17442;DHT22;8838;50.144;8.176;2023-03-01T02:47:41;-2.30;99.90
17442;DHT22;8838;50.144;8.176;2023-03-01T02:50:19;-2.30;99.90
17442;DHT22;8838;50.144;8.176;2023-03-01T02:52:55;-2.20;99.90
17442;DHT22;8838;50.144;8.176;2023-03-01T02:55:28;-2.20;99.90
17442;DHT22;8838;50.144;8.176;2023-03-01T02:57:56;-2.20;99.90
17442;DHT22;8838;50.144;8.176;2023-03-01T03:00:26;-2.20;99.90
17442;DHT22;8838;50.144;8.176;2023-03-01T03:02:55;-2.30;99.90
17442;DHT22;8838;50.144;8.176;2023-03-01T03:05:25;-2.40;99.90
17442;DHT22;8838;50.144;8.176;2023-03-01T03:07:52;-2.30;99.90
17442;DHT22;8838;50.144;8.176;2023-03-01T03:10:22;-2.30;99.90
17442;DHT22;8838;50.144;8.176;2023-03-01T03:12:50;-2.30;99.90
17442;DHT22;8838;50.144;8.176;2023-03-01T03:15:18;-2.40;99.90
17442;DHT22;8838;50.144;8.176;2023-03-01T03:17:47;-2.40;99.90
17442;DHT22;8838;50.144;8.176;2023-03-01T03:22:45;-2.40;99.90
17442;DHT22;8838;50.144;8.176;2023-03-01T03:25:12;-2.40;99.90
17442;DHT22;8838;50.144;8.176;2023-03-01T03:27:40;-2.50;99.90
17442;DHT22;8838;50.144;8.176;2023-03-01T03:30:11;-2.50;99.90
17442;DHT22;8838;50.144;8.176;2023-03-01T03:32:39;-2.60;99.90
17442;DHT22;8838;50.144;8.176;2023-03-01T03:35:10;-2.70;99.90
17442;DHT22;8838;50.144;8.176;2023-03-01T03:37:37;-2.70;99.90
17442;DHT22;8838;50.144;8.176;2023-03-01T03:40:21;-2.70;99.90
17442;DHT22;8838;50.144;8.176;2023-03-01T03:42:48;-2.70;99.90
17442;DHT22;8838;50.144;8.176;2023-03-01T03:45:15;-2.70;99.90
17442;DHT22;8838;50.144;8.176;2023-03-01T03:47:43;-2.70;99.90
17442;DHT22;8838;50.144;8.176;2023-03-01T03:50:13;-2.70;99.90
17442;DHT22;8838;50.144;8.176;2023-03-01T03:52:41;-2.70;99.90
17442;DHT22;8838;50.144;8.176;2023-03-01T03:55:10;-2.80;99.90
17442;DHT22;8838;50.144;8.176;2023-03-01T03:57:43;-2.80;99.90
17442;DHT22;8838;50.144;8.176;2023-03-01T04:00:12;-2.70;99.90
17442;DHT22;8838;50.144;8.176;2023-03-01T04:02:39;-2.70;99.90
17442;DHT22;8838;50.144;8.176;2023-03-01T04:05:08;-2.70;99.90
17442;DHT22;8838;50.144;8.176;2023-03-01T04:07:38;-2.80;99.90
17442;DHT22;8838;50.144;8.176;2023-03-01T04:10:08;-2.90;99.90
17442;DHT22;8838;50.144;8.176;2023-03-01T04:12:36;-2.90;99.90
17442;DHT22;8838;50.144;8.176;2023-03-01T04:15:05;-2.90;99.90
17442;DHT22;8838;50.144;8.176;2023-03-01T04:17:38;-2.90;99.90
17442;DHT22;8838;50.144;8.176;2023-03-01T04:20:06;-2.90;99.90
17442;DHT22;8838;50.144;8.176;2023-03-01T04:22:38;-2.80;99.90
17442;DHT22;8838;50.144;8.176;2023-03-01T04:25:07;-2.70;99.90
17442;DHT22;8838;50.144;8.176;2023-03-01T04:27:40;-2.70;99.90
17442;DHT22;8838;50.144;8.176;2023-03-01T04:30:08;-2.80;99.90
17442;DHT22;8838;50.144;8.176;2023-03-01T04:32:35;-2.90;99.90
17442;DHT22;8838;50.144;8.176;2023-03-01T04:35:02;-2.90;99.90
17442;DHT22;8838;50.144;8.176;2023-03-01T04:37:30;-2.90;99.90
17442;DHT22;8838;50.144;8.176;2023-03-01T04:39:58;-2.90;99.90
17442;DHT22;8838;50.144;8.176;2023-03-01T04:42:25;-3.00;99.90
17442;DHT22;8838;50.144;8.176;2023-03-01T04:44:52;-3.00;99.90
17442;DHT22;8838;50.144;8.176;2023-03-01T04:47:19;-3.00;99.90
17442;DHT22;8838;50.144;8.176;2023-03-01T04:49:46;-2.90;99.90
17442;DHT22;8838;50.144;8.176;2023-03-01T04:52:12;-2.90;99.90
17442;DHT22;8838;50.144;8.176;2023-03-01T04:54:39;-2.90;99.90
17442;DHT22;8838;50.144;8.176;2023-03-01T04:57:08;-2.90;99.90
17442;DHT22;8838;50.144;8.176;2023-03-01T04:59:34;-3.00;99.90
17442;DHT22;8838;50.144;8.176;2023-03-01T05:02:02;-3.00;99.90
17442;DHT22;8838;50.144;8.176;2023-03-01T05:04:30;-2.90;99.90
17442;DHT22;8838;50.144;8.176;2023-03-01T05:06:57;-2.90;99.90
17442;DHT22;8838;50.144;8.176;2023-03-01T05:09:25;-3.00;99.90
17442;DHT22;8838;50.144;8.176;2023-03-01T05:11:51;-3.10;99.90
17442;DHT22;8838;50.144;8.176;2023-03-01T05:14:20;-3.10;99.90
17442;DHT22;8838;50.144;8.176;2023-03-01T05:16:47;-3.00;99.90
17442;DHT22;8838;50.144;8.176;2023-03-01T05:19:14;-3.00;99.90
17442;DHT22;8838;50.144;8.176;2023-03-01T05:21:42;-2.90;99.90
17442;DHT22;8838;50.144;8.176;2023-03-01T05:24:23;-2.90;99.90
17442;DHT22;8838;50.144;8.176;2023-03-01T05:26:50;-2.80;99.90
17442;DHT22;8838;50.144;8.176;2023-03-01T05:29:19;-2.70;99.90
17442;DHT22;8838;50.144;8.176;2023-03-01T05:31:51;-2.70;99.90
17442;DHT22;8838;50.144;8.176;2023-03-01T05:34:18;-2.70;99.90
17442;DHT22;8838;50.144;8.176;2023-03-01T05:36:48;-2.80;99.90
17442;DHT22;8838;50.144;8.176;2023-03-01T05:39:16;-2.80;99.90
17442;DHT22;8838;50.144;8.176;2023-03-01T05:41:43;-2.90;99.90
17442;DHT22;8838;50.144;8.176;2023-03-01T05:44:10;-2.90;99.90
17442;DHT22;8838;50.144;8.176;2023-03-01T05:46:39;-2.90;99.90
17442;DHT22;8838;50.144;8.176;2023-03-01T05:49:06;-2.90;99.90
17442;DHT22;8838;50.144;8.176;2023-03-01T05:51:33;-2.80;99.90
17442;DHT22;8838;50.144;8.176;2023-03-01T05:54:00;-2.80;99.90
17442;DHT22;8838;50.144;8.176;2023-03-01T05:56:27;-2.70;99.90
17442;DHT22;8838;50.144;8.176;2023-03-01T05:58:54;-2.60;99.90
17442;DHT22;8838;50.144;8.176;2023-03-01T06:01:21;-2.60;99.90
17442;DHT22;8838;50.144;8.176;2023-03-01T06:03:50;-2.50;99.90
17442;DHT22;8838;50.144;8.176;2023-03-01T06:06:16;-2.50;99.90
17442;DHT22;8838;50.144;8.176;2023-03-01T06:08:43;-2.50;99.90
17442;DHT22;8838;50.144;8.176;2023-03-01T06:11:10;-2.40;99.90
17442;DHT22;8838;50.144;8.176;2023-03-01T06:13:37;-2.40;99.90
17442;DHT22;8838;50.144;8.176;2023-03-01T06:16:05;-2.30;99.90
17442;DHT22;8838;50.144;8.176;2023-03-01T06:18:32;-2.30;99.90
17442;DHT22;8838;50.144;8.176;2023-03-01T06:21:00;-2.20;99.90
17442;DHT22;8838;50.144;8.176;2023-03-01T06:23:27;-2.30;99.90
17442;DHT22;8838;50.144;8.176;2023-03-01T06:25:54;-2.20;99.90
17442;DHT22;8838;50.144;8.176;2023-03-01T06:28:21;-2.20;99.90
17442;DHT22;8838;50.144;8.176;2023-03-01T06:30:49;-2.00;99.90
17442;DHT22;8838;50.144;8.176;2023-03-01T06:33:17;-1.80;99.90
17442;DHT22;8838;50.144;8.176;2023-03-01T06:35:45;-1.60;99.90
17442;DHT22;8838;50.144;8.176;2023-03-01T06:38:14;-1.50;99.90
17442;DHT22;8838;50.144;8.176;2023-03-01T06:40:42;-1.30;99.90
17442;DHT22;8838;50.144;8.176;2023-03-01T06:43:09;-1.20;99.90
17442;DHT22;8838;50.144;8.176;2023-03-01T06:45:36;-1.20;99.90
17442;DHT22;8838;50.144;8.176;2023-03-01T06:48:07;-1.10;99.90
17442;DHT22;8838;50.144;8.176;2023-03-01T06:50:34;-1.00;99.90
17442;DHT22;8838;50.144;8.176;2023-03-01T06:53:01;-1.10;99.90
17442;DHT22;8838;50.144;8.176;2023-03-01T06:55:30;-1.10;99.90
17442;DHT22;8838;50.144;8.176;2023-03-01T06:57:58;-1.10;99.90
17442;DHT22;8838;50.144;8.176;2023-03-01T07:00:28;-1.00;99.90
17442;DHT22;8838;50.144;8.176;2023-03-01T07:02:55;-1.10;99.90
17442;DHT22;8838;50.144;8.176;2023-03-01T07:05:27;-1.10;99.90
17442;DHT22;8838;50.144;8.176;2023-03-01T07:07:54;-1.00;99.90
17442;DHT22;8838;50.144;8.176;2023-03-01T07:10:22;-0.80;99.90
17442;DHT22;8838;50.144;8.176;2023-03-01T07:12:50;-0.80;99.90
17442;DHT22;8838;50.144;8.176;2023-03-01T07:15:17;-0.80;99.90
17442;DHT22;8838;50.144;8.176;2023-03-01T07:17:43;-0.70;99.90
17442;DHT22;8838;50.144;8.176;2023-03-01T07:20:13;-0.70;99.90
17442;DHT22;8838;50.144;8.176;2023-03-01T07:22:41;-0.90;99.90
17442;DHT22;8838;50.144;8.176;2023-03-01T07:25:08;-0.90;99.90
17442;DHT22;8838;50.144;8.176;2023-03-01T07:27:35;-1.00;99.90
17442;DHT22;8838;50.144;8.176;2023-03-01T07:30:04;-1.10;99.90
17442;DHT22;8838;50.144;8.176;2023-03-01T07:32:31;-1.10;99.90
17442;DHT22;8838;50.144;8.176;2023-03-01T07:34:58;-1.00;99.90
17442;DHT22;8838;50.144;8.176;2023-03-01T07:37:25;-0.90;99.90
17442;DHT22;8838;50.144;8.176;2023-03-01T07:39:52;-0.50;99.90
17442;DHT22;8838;50.144;8.176;2023-03-01T07:42:18;0.00;99.90
17442;DHT22;8838;50.144;8.176;2023-03-01T07:44:45;0.70;99.90
17442;DHT22;8838;50.144;8.176;2023-03-01T07:47:13;1.50;99.90
17442;DHT22;8838;50.144;8.176;2023-03-01T07:49:40;2.20;99.90
17442;DHT22;8838;50.144;8.176;2023-03-01T07:52:09;2.60;99.90
17442;DHT22;8838;50.144;8.176;2023-03-01T07:54:36;2.90;99.90
17442;DHT22;8838;50.144;8.176;2023-03-01T07:57:03;3.20;99.90
17442;DHT22;8838;50.144;8.176;2023-03-01T07:59:30;4.00;99.90
17442;DHT22;8838;50.144;8.176;2023-03-01T08:01:58;4.60;99.90
17442;DHT22;8838;50.144;8.176;2023-03-01T08:04:26;5.20;99.90
17442;DHT22;8838;50.144;8.176;2023-03-01T08:06:53;5.70;99.90
17442;DHT22;8838;50.144;8.176;2023-03-01T08:09:21;6.30;99.90
17442;DHT22;8838;50.144;8.176;2023-03-01T08:11:47;6.60;99.90
17442;DHT22;8838;50.144;8.176;2023-03-01T08:14:14;6.60;99.90
17442;DHT22;8838;50.144;8.176;2023-03-01T08:16:41;6.80;99.90
17442;DHT22;8838;50.144;8.176;2023-03-01T08:19:10;7.20;99.90
17442;DHT22;8838;50.144;8.176;2023-03-01T08:21:38;7.60;99.90
17442;DHT22;8838;50.144;8.176;2023-03-01T08:24:06;7.80;99.90
17442;DHT22;8838;50.144;8.176;2023-03-01T08:26:35;7.40;99.90
17442;DHT22;8838;50.144;8.176;2023-03-01T08:29:03;7.50;99.90
17442;DHT22;8838;50.144;8.176;2023-03-01T08:31:31;7.90;99.90
17442;DHT22;8838;50.144;8.176;2023-03-01T08:34:04;7.40;99.90
17442;DHT22;8838;50.144;8.176;2023-03-01T08:36:35;7.70;99.90
17442;DHT22;8838;50.144;8.176;2023-03-01T08:39:04;7.80;99.90
17442;DHT22;8838;50.144;8.176;2023-03-01T08:41:31;8.10;99.90
17442;DHT22;8838;50.144;8.176;2023-03-01T08:43:58;8.10;99.90
17442;DHT22;8838;50.144;8.176;2023-03-01T08:46:25;8.30;99.90
17442;DHT22;8838;50.144;8.176;2023-03-01T08:48:52;8.10;99.90
17442;DHT22;8838;50.144;8.176;2023-03-01T08:51:20;8.30;99.90
17442;DHT22;8838;50.144;8.176;2023-03-01T08:53:47;7.90;99.90
17442;DHT22;8838;50.144;8.176;2023-03-01T08:56:16;7.80;99.90
17442;DHT22;8838;50.144;8.176;2023-03-01T08:58:44;8.10;99.90
17442;DHT22;8838;50.144;8.176;2023-03-01T09:01:12;8.30;99.90
17442;DHT22;8838;50.144;8.176;2023-03-01T09:03:40;7.80;99.90
17442;DHT22;8838;50.144;8.176;2023-03-01T09:06:07;7.30;99.90
17442;DHT22;8838;50.144;8.176;2023-03-01T09:08:35;8.10;99.90
17442;DHT22;8838;50.144;8.176;2023-03-01T09:11:02;8.40;99.90
17442;DHT22;8838;50.144;8.176;2023-03-01T09:13:30;8.60;99.90
17442;DHT22;8838;50.144;8.176;2023-03-01T09:15:57;8.80;99.90
17442;DHT22;8838;50.144;8.176;2023-03-01T09:18:24;8.70;99.90
17442;DHT22;8838;50.144;8.176;2023-03-01T09:20:51;9.00;99.90
17442;DHT22;8838;50.144;8.176;2023-03-01T09:23:20;9.40;99.90
17442;DHT22;8838;50.144;8.176;2023-03-01T09:25:47;9.60;99.90
17442;DHT22;8838;50.144;8.176;2023-03-01T09:28:14;8.30;99.90
17442;DHT22;8838;50.144;8.176;2023-03-01T09:30:42;8.60;99.90
17442;DHT22;8838;50.144;8.176;2023-03-01T09:33:09;9.40;99.90
17442;DHT22;8838;50.144;8.176;2023-03-01T09:35:40;9.80;99.90
17442;DHT22;8838;50.144;8.176;2023-03-01T09:38:11;10.20;99.90
17442;DHT22;8838;50.144;8.176;2023-03-01T09:40:42;10.30;99.90
17442;DHT22;8838;50.144;8.176;2023-03-01T09:43:18;10.50;99.90
17442;DHT22;8838;50.144;8.176;2023-03-01T09:45:48;11.00;99.90
17442;DHT22;8838;50.144;8.176;2023-03-01T09:48:18;10.90;99.90
17442;DHT22;8838;50.144;8.176;2023-03-01T09:50:47;10.50;99.90
17442;DHT22;8838;50.144;8.176;2023-03-01T09:53:17;10.30;99.90
17442;DHT22;8838;50.144;8.176;2023-03-01T09:55:46;10.10;99.90
17442;DHT22;8838;50.144;8.176;2023-03-01T09:58:35;10.80;99.90
17442;DHT22;8838;50.144;8.176;2023-03-01T10:01:24;10.90;99.90
17442;DHT22;8838;50.144;8.176;2023-03-01T10:04:05;10.90;99.90
17442;DHT22;8838;50.144;8.176;2023-03-01T10:06:35;11.70;99.90
17442;DHT22;8838;50.144;8.176;2023-03-01T10:09:05;11.70;99.90
17442;DHT22;8838;50.144;8.176;2023-03-01T10:11:37;11.60;99.90
17442;DHT22;8838;50.144;8.176;2023-03-01T10:14:09;11.60;99.90
17442;DHT22;8838;50.144;8.176;2023-03-01T10:16:46;12.00;99.90
17442;DHT22;8838;50.144;8.176;2023-03-01T10:19:24;12.40;99.90
17442;DHT22;8838;50.144;8.176;2023-03-01T10:21:53;12.30;99.90
17442;DHT22;8838;50.144;8.176;2023-03-01T10:24:27;12.60;99.90
17442;DHT22;8838;50.144;8.176;2023-03-01T10:27:02;11.70;99.90
17442;DHT22;8838;50.144;8.176;2023-03-01T10:29:36;12.00;99.90
17442;DHT22;8838;50.144;8.176;2023-03-01T10:32:05;12.00;99.90
17442;DHT22;8838;50.144;8.176;2023-03-01T10:34:34;12.20;99.90
17442;DHT22;8838;50.144;8.176;2023-03-01T10:37:10;11.70;99.90
17442;DHT22;8838;50.144;8.176;2023-03-01T10:39:37;11.20;99.90
17442;DHT22;8838;50.144;8.176;2023-03-01T10:42:26;10.20;99.90
17442;DHT22;8838;50.144;8.176;2023-03-01T10:44:53;10.60;99.90
17442;DHT22;8838;50.144;8.176;2023-03-01T10:47:25;10.40;99.90
17442;DHT22;8838;50.144;8.176;2023-03-01T10:50:00;11.20;99.90
17442;DHT22;8838;50.144;8.176;2023-03-01T10:52:31;10.80;99.90
17442;DHT22;8838;50.144;8.176;2023-03-01T10:55:00;10.30;99.90
17442;DHT22;8838;50.144;8.176;2023-03-01T10:57:38;10.00;99.90
17442;DHT22;8838;50.144;8.176;2023-03-01T11:00:25;9.80;99.90
17442;DHT22;8838;50.144;8.176;2023-03-01T11:03:10;9.60;99.90
17442;DHT22;8838;50.144;8.176;2023-03-01T11:05:51;9.70;99.90
17442;DHT22;8838;50.144;8.176;2023-03-01T11:08:33;10.00;99.90
17442;DHT22;8838;50.144;8.176;2023-03-01T11:11:18;9.10;99.90
17442;DHT22;8838;50.144;8.176;2023-03-01T11:13:51;9.20;99.90
17442;DHT22;8838;50.144;8.176;2023-03-01T11:16:31;9.70;99.90
17442;DHT22;8838;50.144;8.176;2023-03-01T11:19:14;10.30;99.90
17442;DHT22;8838;50.144;8.176;2023-03-01T11:21:47;10.10;99.90
17442;DHT22;8838;50.144;8.176;2023-03-01T11:24:17;10.10;99.90
17442;DHT22;8838;50.144;8.176;2023-03-01T11:26:47;10.00;99.90
17442;DHT22;8838;50.144;8.176;2023-03-01T11:29:26;10.20;99.90
17442;DHT22;8838;50.144;8.176;2023-03-01T11:31:57;10.30;99.90
17442;DHT22;8838;50.144;8.176;2023-03-01T11:34:38;10.40;99.90
17442;DHT22;8838;50.144;8.176;2023-03-01T11:37:15;9.90;99.90
17442;DHT22;8838;50.144;8.176;2023-03-01T11:39:47;10.80;99.90
17442;DHT22;8838;50.144;8.176;2023-03-01T11:42:19;11.10;99.90
17442;DHT22;8838;50.144;8.176;2023-03-01T11:44:48;11.30;99.90
17442;DHT22;8838;50.144;8.176;2023-03-01T11:47:28;11.70;99.90
17442;DHT22;8838;50.144;8.176;2023-03-01T11:50:19;11.90;99.90
17442;DHT22;8838;50.144;8.176;2023-03-01T11:55:55;12.50;98.70
17442;DHT22;8838;50.144;8.176;2023-03-01T11:58:43;12.30;98.70
17442;DHT22;8838;50.144;8.176;2023-03-01T12:01:27;12.20;98.20
17442;DHT22;8838;50.144;8.176;2023-03-01T12:04:17;11.70;98.50
17442;DHT22;8838;50.144;8.176;2023-03-01T12:06:55;11.60;98.90
17442;DHT22;8838;50.144;8.176;2023-03-01T12:09:49;11.40;98.90
17442;DHT22;8838;50.144;8.176;2023-03-01T12:12:29;11.00;99.00
17442;DHT22;8838;50.144;8.176;2023-03-01T12:15:32;10.60;99.30
17442;DHT22;8838;50.144;8.176;2023-03-01T12:18:21;9.70;99.90
17442;DHT22;8838;50.144;8.176;2023-03-01T12:20:58;9.10;99.90
17442;DHT22;8838;50.144;8.176;2023-03-01T12:26:33;8.70;99.90
17442;DHT22;8838;50.144;8.176;2023-03-01T12:29:22;8.40;99.90
17442;DHT22;8838;50.144;8.176;2023-03-01T12:32:22;7.80;99.90
17442;DHT22;8838;50.144;8.176;2023-03-01T12:35:03;7.90;99.90
17442;DHT22;8838;50.144;8.176;2023-03-01T12:37:39;7.60;99.90
17442;DHT22;8838;50.144;8.176;2023-03-01T12:40:25;7.50;99.90
17442;DHT22;8838;50.144;8.176;2023-03-01T12:43:03;7.40;99.90
17442;DHT22;8838;50.144;8.176;2023-03-01T12:45:47;7.60;99.90
17442;DHT22;8838;50.144;8.176;2023-03-01T12:48:34;7.50;99.90
17442;DHT22;8838;50.144;8.176;2023-03-01T12:51:06;7.10;99.90
17442;DHT22;8838;50.144;8.176;2023-03-01T12:53:39;7.10;99.90
17442;DHT22;8838;50.144;8.176;2023-03-01T12:56:10;7.10;99.90
17442;DHT22;8838;50.144;8.176;2023-03-01T12:58:42;7.30;99.90
17442;DHT22;8838;50.144;8.176;2023-03-01T13:01:25;7.40;99.90
17442;DHT22;8838;50.144;8.176;2023-03-01T13:04:18;7.50;99.90
17442;DHT22;8838;50.144;8.176;2023-03-01T13:06:58;7.70;99.90
17442;DHT22;8838;50.144;8.176;2023-03-01T13:09:34;7.90;99.90
17442;DHT22;8838;50.144;8.176;2023-03-01T13:15:25;7.90;99.90
17442;DHT22;8838;50.144;8.176;2023-03-01T13:17:53;8.20;99.90
17442;DHT22;8838;50.144;8.176;2023-03-01T13:20:24;8.40;99.90
17442;DHT22;8838;50.144;8.176;2023-03-01T13:23:02;8.20;99.90
17442;DHT22;8838;50.144;8.176;2023-03-01T13:25:29;8.10;99.90
17442;DHT22;8838;50.144;8.176;2023-03-01T13:28:36;8.00;99.90
17442;DHT22;8838;50.144;8.176;2023-03-01T13:31:05;8.30;99.90
17442;DHT22;8838;50.144;8.176;2023-03-01T13:33:45;8.00;99.90
17442;DHT22;8838;50.144;8.176;2023-03-01T13:36:46;7.70;99.90
17442;DHT22;8838;50.144;8.176;2023-03-01T13:39:28;7.80;99.90
17442;DHT22;8838;50.144;8.176;2023-03-01T13:41:58;7.70;99.90
17442;DHT22;8838;50.144;8.176;2023-03-01T13:44:30;7.80;99.90
17442;DHT22;8838;50.144;8.176;2023-03-01T13:46:59;7.60;99.90
17442;DHT22;8838;50.144;8.176;2023-03-01T13:49:33;7.70;99.90
17442;DHT22;8838;50.144;8.176;2023-03-01T13:52:02;7.90;99.90
17442;DHT22;8838;50.144;8.176;2023-03-01T13:54:32;7.90;99.90
17442;DHT22;8838;50.144;8.176;2023-03-01T13:57:00;7.70;99.90
17442;DHT22;8838;50.144;8.176;2023-03-01T13:59:29;7.80;99.90
17442;DHT22;8838;50.144;8.176;2023-03-01T14:01:57;7.80;99.90
17442;DHT22;8838;50.144;8.176;2023-03-01T14:04:26;7.70;99.90
17442;DHT22;8838;50.144;8.176;2023-03-01T14:07:09;7.50;99.90
17442;DHT22;8838;50.144;8.176;2023-03-01T14:09:42;7.60;99.90
17442;DHT22;8838;50.144;8.176;2023-03-01T14:12:26;7.60;99.90
17442;DHT22;8838;50.144;8.176;2023-03-01T14:15:02;7.80;99.90
17442;DHT22;8838;50.144;8.176;2023-03-01T14:17:46;7.90;99.90
17442;DHT22;8838;50.144;8.176;2023-03-01T14:20:19;8.00;99.90
17442;DHT22;8838;50.144;8.176;2023-03-01T14:22:47;8.20;99.90
17442;DHT22;8838;50.144;8.176;2023-03-01T14:25:25;8.20;99.90
17442;DHT22;8838;50.144;8.176;2023-03-01T14:27:59;8.40;99.90
17442;DHT22;8838;50.144;8.176;2023-03-01T14:30:32;8.50;99.90
17442;DHT22;8838;50.144;8.176;2023-03-01T14:33:02;8.30;99.90
17442;DHT22;8838;50.144;8.176;2023-03-01T14:35:30;8.40;99.90
17442;DHT22;8838;50.144;8.176;2023-03-01T14:37:58;8.10;99.90
17442;DHT22;8838;50.144;8.176;2023-03-01T14:40:27;8.20;99.90
17442;DHT22;8838;50.144;8.176;2023-03-01T14:42:57;8.20;99.90
17442;DHT22;8838;50.144;8.176;2023-03-01T14:45:26;8.30;99.90
17442;DHT22;8838;50.144;8.176;2023-03-01T14:47:55;8.50;99.90
17442;DHT22;8838;50.144;8.176;2023-03-01T14:50:26;8.50;99.90
17442;DHT22;8838;50.144;8.176;2023-03-01T14:52:55;8.40;99.90
17442;DHT22;8838;50.144;8.176;2023-03-01T14:55:27;8.50;99.90
17442;DHT22;8838;50.144;8.176;2023-03-01T14:57:56;8.80;99.90
17442;DHT22;8838;50.144;8.176;2023-03-01T15:00:26;8.90;99.90
17442;DHT22;8838;50.144;8.176;2023-03-01T15:02:56;9.00;99.90
17442;DHT22;8838;50.144;8.176;2023-03-01T15:05:27;8.50;99.90
17442;DHT22;8838;50.144;8.176;2023-03-01T15:07:56;8.60;99.90
17442;DHT22;8838;50.144;8.176;2023-03-01T15:10:25;8.60;99.90
17442;DHT22;8838;50.144;8.176;2023-03-01T15:12:52;8.50;99.90
17442;DHT22;8838;50.144;8.176;2023-03-01T15:15:38;8.50;99.90
17442;DHT22;8838;50.144;8.176;2023-03-01T15:18:15;8.80;99.90
17442;DHT22;8838;50.144;8.176;2023-03-01T15:20:49;8.50;99.90
17442;DHT22;8838;50.144;8.176;2023-03-01T15:23:20;8.30;99.90
17442;DHT22;8838;50.144;8.176;2023-03-01T15:25:49;8.20;99.90
17442;DHT22;8838;50.144;8.176;2023-03-01T15:28:25;8.00;99.90
17442;DHT22;8838;50.144;8.176;2023-03-01T15:30:56;7.90;99.90
17442;DHT22;8838;50.144;8.176;2023-03-01T15:33:33;7.60;99.90
17442;DHT22;8838;50.144;8.176;2023-03-01T15:36:02;7.60;99.90
17442;DHT22;8838;50.144;8.176;2023-03-01T15:38:34;7.70;99.90
17442;DHT22;8838;50.144;8.176;2023-03-01T15:41:05;7.30;99.90
17442;DHT22;8838;50.144;8.176;2023-03-01T15:43:41;7.00;99.90
17442;DHT22;8838;50.144;8.176;2023-03-01T15:46:18;6.70;99.90
17442;DHT22;8838;50.144;8.176;2023-03-01T15:48:47;6.70;99.90
17442;DHT22;8838;50.144;8.176;2023-03-01T15:51:18;6.50;99.90
17442;DHT22;8838;50.144;8.176;2023-03-01T15:53:51;6.30;99.90
17442;DHT22;8838;50.144;8.176;2023-03-01T15:56:19;6.30;99.90
17442;DHT22;8838;50.144;8.176;2023-03-01T15:58:45;6.20;99.90
17442;DHT22;8838;50.144;8.176;2023-03-01T16:01:13;6.20;99.90
17442;DHT22;8838;50.144;8.176;2023-03-01T16:03:41;6.20;99.90
17442;DHT22;8838;50.144;8.176;2023-03-01T16:06:10;6.10;99.90
17442;DHT22;8838;50.144;8.176;2023-03-01T16:08:38;6.00;99.90
17442;DHT22;8838;50.144;8.176;2023-03-01T16:11:13;5.80;99.90
17442;DHT22;8838;50.144;8.176;2023-03-01T16:13:40;5.70;99.90
17442;DHT22;8838;50.144;8.176;2023-03-01T16:16:08;5.60;99.90
17442;DHT22;8838;50.144;8.176;2023-03-01T16:18:37;5.60;99.90
17442;DHT22;8838;50.144;8.176;2023-03-01T16:21:05;5.60;99.90
17442;DHT22;8838;50.144;8.176;2023-03-01T16:23:33;5.60;99.90
17442;DHT22;8838;50.144;8.176;2023-03-01T16:26:02;5.60;99.90
17442;DHT22;8838;50.144;8.176;2023-03-01T16:28:29;5.50;99.90